sensor_id;sensor_type;location;lat;lon;timestamp;P1;durP1;ratioP1;P2;durP2;ratioP2
65879;SDS011;52661;51.364;6.054;2023-11-21T00:02:02;6.37;;;2.73;;
65879;SDS011;52661;51.364;6.054;2023-11-21T00:04:29;6.72;;;1.85;;
65879;SDS011;52661;51.364;6.054;2023-11-21T00:06:54;5.60;;;1.67;;
65879;SDS011;52661;51.364;6.054;2023-11-21T00:09:20;5.28;;;2.72;;
65879;SDS011;52661;51.364;6.054;2023-11-21T00:11:45;4.93;;;1.73;;
65879;SDS011;52661;51.364;6.054;2023-11-21T00:14:11;4.23;;;1.97;;
65879;SDS011;52661;51.364;6.054;2023-11-21T00:16:36;6.75;;;2.55;;
65879;SDS011;52661;51.364;6.054;2023-11-21T00:19:02;5.43;;;2.15;;
65879;SDS011;52661;51.364;6.054;2023-11-21T00:21:27;6.85;;;2.53;;
65879;SDS011;52661;51.364;6.054;2023-11-21T00:23:52;7.47;;;1.67;;
65879;SDS011;52661;51.364;6.054;2023-11-21T00:26:17;7.20;;;2.53;;
65879;SDS011;52661;51.364;6.054;2023-11-21T00:28:43;7.50;;;2.97;;
65879;SDS011;52661;51.364;6.054;2023-11-21T00:31:08;8.03;;;2.57;;
65879;SDS011;52661;51.364;6.054;2023-11-21T00:33:34;7.13;;;2.63;;
65879;SDS011;52661;51.364;6.054;2023-11-21T00:35:59;8.15;;;2.42;;
65879;SDS011;52661;51.364;6.054;2023-11-21T00:38:25;7.63;;;2.53;;
65879;SDS011;52661;51.364;6.054;2023-11-21T00:40:52;9.07;;;2.78;;
65879;SDS011;52661;51.364;6.054;2023-11-21T00:43:20;8.80;;;3.22;;
65879;SDS011;52661;51.364;6.054;2023-11-21T00:45:46;7.65;;;2.80;;
65879;SDS011;52661;51.364;6.054;2023-11-21T00:48:14;7.45;;;2.40;;
65879;SDS011;52661;51.364;6.054;2023-11-21T00:50:39;8.10;;;2.40;;
65879;SDS011;52661;51.364;6.054;2023-11-21T00:53:05;8.73;;;2.83;;
65879;SDS011;52661;51.364;6.054;2023-11-21T00:55:32;7.28;;;2.42;;
65879;SDS011;52661;51.364;6.054;2023-11-21T00:57:58;7.93;;;3.13;;
65879;SDS011;52661;51.364;6.054;2023-11-21T01:00:23;9.27;;;2.45;;
65879;SDS011;52661;51.364;6.054;2023-11-21T01:02:49;8.00;;;2.42;;
65879;SDS011;52661;51.364;6.054;2023-11-21T01:05:14;6.57;;;2.23;;
65879;SDS011;52661;51.364;6.054;2023-11-21T01:07:39;8.25;;;2.88;;
65879;SDS011;52661;51.364;6.054;2023-11-21T01:10:05;5.97;;;2.13;;
65879;SDS011;52661;51.364;6.054;2023-11-21T01:12:32;7.13;;;2.10;;
65879;SDS011;52661;51.364;6.054;2023-11-21T01:14:59;8.85;;;3.45;;
65879;SDS011;52661;51.364;6.054;2023-11-21T01:17:25;9.48;;;2.80;;
65879;SDS011;52661;51.364;6.054;2023-11-21T01:19:51;7.32;;;2.85;;
65879;SDS011;52661;51.364;6.054;2023-11-21T01:22:16;9.55;;;3.15;;
65879;SDS011;52661;51.364;6.054;2023-11-21T01:24:42;11.75;;;2.92;;
65879;SDS011;52661;51.364;6.054;2023-11-21T01:27:08;11.65;;;2.85;;
65879;SDS011;52661;51.364;6.054;2023-11-21T01:29:33;9.77;;;2.78;;
65879;SDS011;52661;51.364;6.054;2023-11-21T01:32:00;8.93;;;2.60;;
65879;SDS011;52661;51.364;6.054;2023-11-21T01:34:27;10.20;;;3.05;;
65879;SDS011;52661;51.364;6.054;2023-11-21T01:36:52;12.45;;;3.00;;
65879;SDS011;52661;51.364;6.054;2023-11-21T01:39:17;8.13;;;3.05;;
65879;SDS011;52661;51.364;6.054;2023-11-21T01:41:48;11.77;;;3.42;;
65879;SDS011;52661;51.364;6.054;2023-11-21T01:44:14;11.52;;;3.17;;
65879;SDS011;52661;51.364;6.054;2023-11-21T01:46:39;11.33;;;3.13;;
65879;SDS011;52661;51.364;6.054;2023-11-21T01:49:06;13.05;;;2.92;;
65879;SDS011;52661;51.364;6.054;2023-11-21T01:51:34;11.02;;;3.50;;
65879;SDS011;52661;51.364;6.054;2023-11-21T01:53:59;10.52;;;3.67;;
65879;SDS011;52661;51.364;6.054;2023-11-21T01:56:25;10.60;;;3.33;;
65879;SDS011;52661;51.364;6.054;2023-11-21T01:58:51;12.90;;;4.10;;
65879;SDS011;52661;51.364;6.054;2023-11-21T02:01:16;14.05;;;3.08;;
65879;SDS011;52661;51.364;6.054;2023-11-21T02:03:43;11.48;;;3.13;;
65879;SDS011;52661;51.364;6.054;2023-11-21T02:06:08;11.63;;;3.40;;
65879;SDS011;52661;51.364;6.054;2023-11-21T02:08:34;11.27;;;3.38;;
65879;SDS011;52661;51.364;6.054;2023-11-21T02:10:59;8.52;;;2.88;;
65879;SDS011;52661;51.364;6.054;2023-11-21T02:13:25;8.90;;;3.28;;
65879;SDS011;52661;51.364;6.054;2023-11-21T02:15:50;17.63;;;3.80;;
65879;SDS011;52661;51.364;6.054;2023-11-21T02:18:17;14.52;;;3.92;;
65879;SDS011;52661;51.364;6.054;2023-11-21T02:20:43;12.82;;;3.45;;
65879;SDS011;52661;51.364;6.054;2023-11-21T02:23:08;11.32;;;3.75;;
65879;SDS011;52661;51.364;6.054;2023-11-21T02:25:33;9.73;;;3.13;;
65879;SDS011;52661;51.364;6.054;2023-11-21T02:27:59;10.70;;;2.90;;
65879;SDS011;52661;51.364;6.054;2023-11-21T02:30:26;11.27;;;3.35;;
65879;SDS011;52661;51.364;6.054;2023-11-21T02:32:53;9.32;;;3.38;;
65879;SDS011;52661;51.364;6.054;2023-11-21T02:35:19;13.50;;;4.22;;
65879;SDS011;52661;51.364;6.054;2023-11-21T02:37:47;12.25;;;3.17;;
65879;SDS011;52661;51.364;6.054;2023-11-21T02:40:13;13.85;;;3.90;;
65879;SDS011;52661;51.364;6.054;2023-11-21T02:42:42;9.75;;;3.25;;
65879;SDS011;52661;51.364;6.054;2023-11-21T02:45:12;12.27;;;3.53;;
65879;SDS011;52661;51.364;6.054;2023-11-21T02:47:41;11.00;;;3.55;;
65879;SDS011;52661;51.364;6.054;2023-11-21T02:50:07;13.50;;;3.15;;
65879;SDS011;52661;51.364;6.054;2023-11-21T02:52:34;8.63;;;3.38;;
65879;SDS011;52661;51.364;6.054;2023-11-21T02:55:00;11.15;;;3.13;;
65879;SDS011;52661;51.364;6.054;2023-11-21T02:57:28;7.97;;;2.58;;
65879;SDS011;52661;51.364;6.054;2023-11-21T02:59:54;6.78;;;2.80;;
65879;SDS011;52661;51.364;6.054;2023-11-21T03:02:19;10.18;;;3.90;;
65879;SDS011;52661;51.364;6.054;2023-11-21T03:04:45;8.77;;;3.70;;
65879;SDS011;52661;51.364;6.054;2023-11-21T03:07:10;10.50;;;3.00;;
65879;SDS011;52661;51.364;6.054;2023-11-21T03:09:35;9.30;;;2.72;;
65879;SDS011;52661;51.364;6.054;2023-11-21T03:12:01;10.83;;;3.57;;
65879;SDS011;52661;51.364;6.054;2023-11-21T03:14:27;10.90;;;2.83;;
65879;SDS011;52661;51.364;6.054;2023-11-21T03:16:52;8.70;;;3.47;;
65879;SDS011;52661;51.364;6.054;2023-11-21T03:19:17;9.40;;;3.70;;
65879;SDS011;52661;51.364;6.054;2023-11-21T03:21:43;7.68;;;3.00;;
65879;SDS011;52661;51.364;6.054;2023-11-21T03:24:08;10.30;;;3.40;;
65879;SDS011;52661;51.364;6.054;2023-11-21T03:26:33;10.20;;;3.25;;
65879;SDS011;52661;51.364;6.054;2023-11-21T03:28:59;13.13;;;3.28;;
65879;SDS011;52661;51.364;6.054;2023-11-21T03:31:24;7.10;;;3.38;;
65879;SDS011;52661;51.364;6.054;2023-11-21T03:33:50;6.38;;;2.58;;
65879;SDS011;52661;51.364;6.054;2023-11-21T03:36:15;7.47;;;3.10;;
65879;SDS011;52661;51.364;6.054;2023-11-21T03:38:41;6.68;;;3.22;;
65879;SDS011;52661;51.364;6.054;2023-11-21T03:41:07;5.93;;;2.53;;
65879;SDS011;52661;51.364;6.054;2023-11-21T03:43:35;12.73;;;3.53;;
65879;SDS011;52661;51.364;6.054;2023-11-21T03:46:01;8.43;;;2.65;;
65879;SDS011;52661;51.364;6.054;2023-11-21T03:48:27;8.38;;;2.97;;
65879;SDS011;52661;51.364;6.054;2023-11-21T03:50:52;9.23;;;3.23;;
65879;SDS011;52661;51.364;6.054;2023-11-21T03:53:18;7.63;;;3.03;;
65879;SDS011;52661;51.364;6.054;2023-11-21T03:55:43;12.65;;;3.53;;
65879;SDS011;52661;51.364;6.054;2023-11-21T03:58:08;9.27;;;3.37;;
65879;SDS011;52661;51.364;6.054;2023-11-21T04:00:34;13.37;;;3.47;;
65879;SDS011;52661;51.364;6.054;2023-11-21T04:02:59;12.33;;;3.60;;
65879;SDS011;52661;51.364;6.054;2023-11-21T04:05:24;13.33;;;4.00;;
65879;SDS011;52661;51.364;6.054;2023-11-21T04:07:50;17.97;;;3.23;;
65879;SDS011;52661;51.364;6.054;2023-11-21T04:10:18;11.60;;;3.72;;
65879;SDS011;52661;51.364;6.054;2023-11-21T04:12:44;8.70;;;3.15;;
65879;SDS011;52661;51.364;6.054;2023-11-21T04:15:10;13.77;;;3.65;;
65879;SDS011;52661;51.364;6.054;2023-11-21T04:17:37;13.85;;;4.10;;
65879;SDS011;52661;51.364;6.054;2023-11-21T04:20:03;9.77;;;3.33;;
65879;SDS011;52661;51.364;6.054;2023-11-21T04:22:38;13.18;;;4.85;;
65879;SDS011;52661;51.364;6.054;2023-11-21T04:25:09;11.13;;;3.95;;
65879;SDS011;52661;51.364;6.054;2023-11-21T04:27:41;15.07;;;3.83;;
65879;SDS011;52661;51.364;6.054;2023-11-21T04:30:10;14.63;;;5.05;;
65879;SDS011;52661;51.364;6.054;2023-11-21T04:32:39;13.85;;;4.43;;
65879;SDS011;52661;51.364;6.054;2023-11-21T04:35:04;19.83;;;4.43;;
65879;SDS011;52661;51.364;6.054;2023-11-21T04:37:30;12.23;;;4.60;;
65879;SDS011;52661;51.364;6.054;2023-11-21T04:39:55;17.02;;;4.95;;
65879;SDS011;52661;51.364;6.054;2023-11-21T04:42:21;12.27;;;4.73;;
65879;SDS011;52661;51.364;6.054;2023-11-21T04:44:46;18.52;;;4.10;;
65879;SDS011;52661;51.364;6.054;2023-11-21T04:47:12;11.70;;;4.28;;
65879;SDS011;52661;51.364;6.054;2023-11-21T04:49:39;15.40;;;4.43;;
65879;SDS011;52661;51.364;6.054;2023-11-21T04:52:07;14.25;;;3.30;;
65879;SDS011;52661;51.364;6.054;2023-11-21T04:54:34;9.30;;;3.22;;
65879;SDS011;52661;51.364;6.054;2023-11-21T04:57:00;10.43;;;3.38;;
65879;SDS011;52661;51.364;6.054;2023-11-21T04:59:25;13.65;;;3.88;;
65879;SDS011;52661;51.364;6.054;2023-11-21T05:01:52;13.02;;;3.80;;
65879;SDS011;52661;51.364;6.054;2023-11-21T05:04:18;16.38;;;4.00;;
65879;SDS011;52661;51.364;6.054;2023-11-21T05:06:44;12.25;;;3.55;;
65879;SDS011;52661;51.364;6.054;2023-11-21T05:09:09;13.47;;;4.23;;
65879;SDS011;52661;51.364;6.054;2023-11-21T05:11:37;10.35;;;4.18;;
65879;SDS011;52661;51.364;6.054;2023-11-21T05:14:03;11.88;;;4.32;;
65879;SDS011;52661;51.364;6.054;2023-11-21T05:16:30;11.55;;;3.60;;
65879;SDS011;52661;51.364;6.054;2023-11-21T05:18:56;15.80;;;4.28;;
65879;SDS011;52661;51.364;6.054;2023-11-21T05:21:28;18.88;;;4.53;;
65879;SDS011;52661;51.364;6.054;2023-11-21T05:23:55;12.15;;;3.58;;
65879;SDS011;52661;51.364;6.054;2023-11-21T05:26:20;14.27;;;5.00;;
65879;SDS011;52661;51.364;6.054;2023-11-21T05:28:45;12.90;;;3.73;;
65879;SDS011;52661;51.364;6.054;2023-11-21T05:31:11;12.77;;;4.90;;
65879;SDS011;52661;51.364;6.054;2023-11-21T05:33:36;13.13;;;4.23;;
65879;SDS011;52661;51.364;6.054;2023-11-21T05:36:02;14.55;;;4.25;;
65879;SDS011;52661;51.364;6.054;2023-11-21T05:38:27;15.60;;;5.03;;
65879;SDS011;52661;51.364;6.054;2023-11-21T05:40:53;11.47;;;3.97;;
65879;SDS011;52661;51.364;6.054;2023-11-21T05:43:19;15.20;;;3.97;;
65879;SDS011;52661;51.364;6.054;2023-11-21T05:45:44;14.45;;;4.40;;
65879;SDS011;52661;51.364;6.054;2023-11-21T05:48:10;10.57;;;3.93;;
65879;SDS011;52661;51.364;6.054;2023-11-21T05:50:35;10.35;;;3.05;;
65879;SDS011;52661;51.364;6.054;2023-11-21T05:53:02;12.85;;;4.50;;
65879;SDS011;52661;51.364;6.054;2023-11-21T05:55:28;11.10;;;4.18;;
65879;SDS011;52661;51.364;6.054;2023-11-21T05:57:53;9.68;;;3.88;;
65879;SDS011;52661;51.364;6.054;2023-11-21T06:00:19;12.93;;;3.90;;
65879;SDS011;52661;51.364;6.054;2023-11-21T06:02:48;11.77;;;3.90;;
65879;SDS011;52661;51.364;6.054;2023-11-21T06:05:21;12.55;;;3.15;;
65879;SDS011;52661;51.364;6.054;2023-11-21T06:07:48;9.85;;;3.90;;
65879;SDS011;52661;51.364;6.054;2023-11-21T06:10:14;13.82;;;3.70;;
65879;SDS011;52661;51.364;6.054;2023-11-21T06:12:40;12.73;;;4.10;;
65879;SDS011;52661;51.364;6.054;2023-11-21T06:15:08;11.05;;;3.40;;
65879;SDS011;52661;51.364;6.054;2023-11-21T06:17:35;11.43;;;2.75;;
65879;SDS011;52661;51.364;6.054;2023-11-21T06:20:04;10.10;;;2.97;;
65879;SDS011;52661;51.364;6.054;2023-11-21T06:22:38;12.15;;;3.50;;
65879;SDS011;52661;51.364;6.054;2023-11-21T06:25:04;10.07;;;3.28;;
65879;SDS011;52661;51.364;6.054;2023-11-21T06:27:31;9.70;;;3.50;;
65879;SDS011;52661;51.364;6.054;2023-11-21T06:29:57;10.27;;;4.22;;
65879;SDS011;52661;51.364;6.054;2023-11-21T06:32:23;14.43;;;4.10;;
65879;SDS011;52661;51.364;6.054;2023-11-21T06:34:48;10.23;;;3.28;;
65879;SDS011;52661;51.364;6.054;2023-11-21T06:37:14;14.13;;;4.50;;
65879;SDS011;52661;51.364;6.054;2023-11-21T06:39:40;9.57;;;3.17;;
65879;SDS011;52661;51.364;6.054;2023-11-21T06:42:05;10.80;;;4.03;;
65879;SDS011;52661;51.364;6.054;2023-11-21T06:44:31;9.70;;;3.65;;
65879;SDS011;52661;51.364;6.054;2023-11-21T06:46:56;13.38;;;3.85;;
65879;SDS011;52661;51.364;6.054;2023-11-21T06:49:21;11.33;;;2.50;;
65879;SDS011;52661;51.364;6.054;2023-11-21T06:51:48;10.82;;;3.17;;
65879;SDS011;52661;51.364;6.054;2023-11-21T06:54:13;8.73;;;2.77;;
65879;SDS011;52661;51.364;6.054;2023-11-21T06:56:39;8.48;;;3.13;;
65879;SDS011;52661;51.364;6.054;2023-11-21T06:59:05;9.70;;;2.85;;
65879;SDS011;52661;51.364;6.054;2023-11-21T07:01:30;11.70;;;3.53;;
65879;SDS011;52661;51.364;6.054;2023-11-21T07:03:59;12.88;;;3.45;;
65879;SDS011;52661;51.364;6.054;2023-11-21T07:06:24;10.40;;;3.03;;
65879;SDS011;52661;51.364;6.054;2023-11-21T07:08:49;9.50;;;3.30;;
65879;SDS011;52661;51.364;6.054;2023-11-21T07:11:15;10.48;;;4.38;;
65879;SDS011;52661;51.364;6.054;2023-11-21T07:13:40;13.65;;;4.53;;
65879;SDS011;52661;51.364;6.054;2023-11-21T07:16:06;10.80;;;4.20;;
65879;SDS011;52661;51.364;6.054;2023-11-21T07:18:31;17.60;;;4.38;;
65879;SDS011;52661;51.364;6.054;2023-11-21T07:20:57;16.60;;;4.30;;
65879;SDS011;52661;51.364;6.054;2023-11-21T07:23:23;15.45;;;4.47;;
65879;SDS011;52661;51.364;6.054;2023-11-21T07:25:49;14.15;;;4.28;;
65879;SDS011;52661;51.364;6.054;2023-11-21T07:28:14;14.60;;;4.03;;
65879;SDS011;52661;51.364;6.054;2023-11-21T07:30:40;16.98;;;5.03;;
65879;SDS011;52661;51.364;6.054;2023-11-21T07:33:05;18.93;;;4.83;;
65879;SDS011;52661;51.364;6.054;2023-11-21T07:35:32;15.23;;;4.20;;
65879;SDS011;52661;51.364;6.054;2023-11-21T07:37:57;16.92;;;5.63;;
65879;SDS011;52661;51.364;6.054;2023-11-21T07:40:23;13.82;;;4.55;;
65879;SDS011;52661;51.364;6.054;2023-11-21T07:42:48;17.85;;;5.05;;
65879;SDS011;52661;51.364;6.054;2023-11-21T07:45:15;14.95;;;4.15;;
65879;SDS011;52661;51.364;6.054;2023-11-21T07:47:40;14.80;;;4.53;;
65879;SDS011;52661;51.364;6.054;2023-11-21T07:50:06;13.60;;;3.90;;
65879;SDS011;52661;51.364;6.054;2023-11-21T07:52:32;17.42;;;4.40;;
65879;SDS011;52661;51.364;6.054;2023-11-21T07:54:57;15.98;;;4.22;;
65879;SDS011;52661;51.364;6.054;2023-11-21T07:57:23;15.90;;;4.83;;
65879;SDS011;52661;51.364;6.054;2023-11-21T07:59:49;15.07;;;4.47;;
65879;SDS011;52661;51.364;6.054;2023-11-21T08:02:14;14.65;;;3.92;;
65879;SDS011;52661;51.364;6.054;2023-11-21T08:04:41;13.25;;;4.38;;
65879;SDS011;52661;51.364;6.054;2023-11-21T08:07:07;13.43;;;4.47;;
65879;SDS011;52661;51.364;6.054;2023-11-21T08:09:32;10.87;;;3.57;;
65879;SDS011;52661;51.364;6.054;2023-11-21T08:11:59;10.80;;;3.88;;
65879;SDS011;52661;51.364;6.054;2023-11-21T08:14:25;15.70;;;4.50;;
65879;SDS011;52661;51.364;6.054;2023-11-21T08:16:51;18.20;;;4.70;;
65879;SDS011;52661;51.364;6.054;2023-11-21T08:19:16;17.48;;;3.60;;
65879;SDS011;52661;51.364;6.054;2023-11-21T08:21:43;21.23;;;4.35;;
65879;SDS011;52661;51.364;6.054;2023-11-21T08:24:08;18.92;;;5.68;;
65879;SDS011;52661;51.364;6.054;2023-11-21T08:26:36;19.67;;;5.25;;
65879;SDS011;52661;51.364;6.054;2023-11-21T08:29:01;16.02;;;5.35;;
65879;SDS011;52661;51.364;6.054;2023-11-21T08:31:27;16.00;;;4.90;;
65879;SDS011;52661;51.364;6.054;2023-11-21T08:33:53;15.63;;;3.83;;
65879;SDS011;52661;51.364;6.054;2023-11-21T08:36:21;17.45;;;4.55;;
65879;SDS011;52661;51.364;6.054;2023-11-21T08:38:49;15.48;;;4.30;;
65879;SDS011;52661;51.364;6.054;2023-11-21T08:41:14;15.77;;;3.97;;
65879;SDS011;52661;51.364;6.054;2023-11-21T08:43:41;10.93;;;3.63;;
65879;SDS011;52661;51.364;6.054;2023-11-21T08:46:07;12.75;;;3.55;;
65879;SDS011;52661;51.364;6.054;2023-11-21T08:48:38;15.32;;;3.95;;
65879;SDS011;52661;51.364;6.054;2023-11-21T08:53:29;9.95;;;3.15;;
65879;SDS011;52661;51.364;6.054;2023-11-21T08:55:56;17.00;;;4.55;;
65879;SDS011;52661;51.364;6.054;2023-11-21T08:58:21;11.73;;;4.05;;
65879;SDS011;52661;51.364;6.054;2023-11-21T09:00:47;13.32;;;3.95;;
65879;SDS011;52661;51.364;6.054;2023-11-21T09:03:12;19.50;;;4.27;;
65879;SDS011;52661;51.364;6.054;2023-11-21T09:05:38;15.23;;;3.83;;
65879;SDS011;52661;51.364;6.054;2023-11-21T09:08:04;13.45;;;3.45;;
65879;SDS011;52661;51.364;6.054;2023-11-21T09:10:30;19.50;;;5.57;;
65879;SDS011;52661;51.364;6.054;2023-11-21T09:12:55;15.27;;;4.13;;
65879;SDS011;52661;51.364;6.054;2023-11-21T09:15:21;14.23;;;4.07;;
65879;SDS011;52661;51.364;6.054;2023-11-21T09:17:46;17.55;;;4.65;;
65879;SDS011;52661;51.364;6.054;2023-11-21T09:20:12;14.75;;;4.88;;
65879;SDS011;52661;51.364;6.054;2023-11-21T09:22:39;8.82;;;2.58;;
65879;SDS011;52661;51.364;6.054;2023-11-21T09:25:05;16.13;;;3.55;;
65879;SDS011;52661;51.364;6.054;2023-11-21T09:27:32;12.32;;;2.90;;
65879;SDS011;52661;51.364;6.054;2023-11-21T09:29:57;20.10;;;4.68;;
65879;SDS011;52661;51.364;6.054;2023-11-21T09:32:23;13.20;;;3.83;;
65879;SDS011;52661;51.364;6.054;2023-11-21T09:34:49;14.18;;;4.30;;
65879;SDS011;52661;51.364;6.054;2023-11-21T09:37:15;16.08;;;4.85;;
65879;SDS011;52661;51.364;6.054;2023-11-21T09:39:41;13.63;;;4.07;;
65879;SDS011;52661;51.364;6.054;2023-11-21T09:42:15;14.82;;;4.45;;
65879;SDS011;52661;51.364;6.054;2023-11-21T09:47:39;16.80;;;4.13;;
65879;SDS011;52661;51.364;6.054;2023-11-21T09:50:05;14.68;;;3.33;;
65879;SDS011;52661;51.364;6.054;2023-11-21T09:52:37;12.20;;;3.90;;
65879;SDS011;52661;51.364;6.054;2023-11-21T09:55:13;16.73;;;4.32;;
65879;SDS011;52661;51.364;6.054;2023-11-21T09:57:43;15.57;;;4.18;;
65879;SDS011;52661;51.364;6.054;2023-11-21T10:00:10;13.43;;;3.88;;
65879;SDS011;52661;51.364;6.054;2023-11-21T10:02:37;13.68;;;3.28;;
65879;SDS011;52661;51.364;6.054;2023-11-21T10:05:05;10.55;;;3.03;;
65879;SDS011;52661;51.364;6.054;2023-11-21T10:07:31;14.80;;;3.83;;
65879;SDS011;52661;51.364;6.054;2023-11-21T10:09:59;14.70;;;3.80;;
65879;SDS011;52661;51.364;6.054;2023-11-21T10:12:26;9.75;;;2.85;;
65879;SDS011;52661;51.364;6.054;2023-11-21T10:14:53;12.32;;;3.60;;
65879;SDS011;52661;51.364;6.054;2023-11-21T10:17:20;11.27;;;3.90;;
65879;SDS011;52661;51.364;6.054;2023-11-21T10:19:51;11.90;;;3.28;;
65879;SDS011;52661;51.364;6.054;2023-11-21T10:22:18;12.30;;;3.67;;
65879;SDS011;52661;51.364;6.054;2023-11-21T10:24:45;10.55;;;2.60;;
65879;SDS011;52661;51.364;6.054;2023-11-21T10:27:11;10.23;;;2.75;;
65879;SDS011;52661;51.364;6.054;2023-11-21T10:29:36;8.13;;;2.58;;
65879;SDS011;52661;51.364;6.054;2023-11-21T10:32:02;10.60;;;3.42;;
65879;SDS011;52661;51.364;6.054;2023-11-21T10:34:28;7.53;;;2.63;;
65879;SDS011;52661;51.364;6.054;2023-11-21T10:36:54;6.88;;;2.90;;
65879;SDS011;52661;51.364;6.054;2023-11-21T10:39:23;10.27;;;3.17;;
65879;SDS011;52661;51.364;6.054;2023-11-21T10:41:52;10.60;;;3.15;;
65879;SDS011;52661;51.364;6.054;2023-11-21T10:44:19;10.65;;;3.15;;
65879;SDS011;52661;51.364;6.054;2023-11-21T10:46:46;10.80;;;3.13;;
65879;SDS011;52661;51.364;6.054;2023-11-21T10:49:18;10.40;;;3.50;;
65879;SDS011;52661;51.364;6.054;2023-11-21T10:51:45;12.68;;;2.88;;
65879;SDS011;52661;51.364;6.054;2023-11-21T10:54:11;11.93;;;3.40;;
65879;SDS011;52661;51.364;6.054;2023-11-21T10:56:38;11.68;;;3.22;;
65879;SDS011;52661;51.364;6.054;2023-11-21T10:59:07;9.48;;;2.58;;
65879;SDS011;52661;51.364;6.054;2023-11-21T11:01:39;11.25;;;2.80;;
65879;SDS011;52661;51.364;6.054;2023-11-21T11:04:09;10.15;;;3.42;;
65879;SDS011;52661;51.364;6.054;2023-11-21T11:06:42;14.65;;;4.18;;
65879;SDS011;52661;51.364;6.054;2023-11-21T11:09:10;11.90;;;3.45;;
65879;SDS011;52661;51.364;6.054;2023-11-21T11:11:38;10.20;;;3.33;;
65879;SDS011;52661;51.364;6.054;2023-11-21T11:14:06;8.18;;;3.47;;
65879;SDS011;52661;51.364;6.054;2023-11-21T11:16:35;8.35;;;2.90;;
65879;SDS011;52661;51.364;6.054;2023-11-21T11:19:02;13.05;;;4.25;;
65879;SDS011;52661;51.364;6.054;2023-11-21T11:21:33;9.68;;;3.38;;
65879;SDS011;52661;51.364;6.054;2023-11-21T11:27:50;12.43;;;3.40;;
65879;SDS011;52661;51.364;6.054;2023-11-21T11:35:55;8.38;;;2.72;;
65879;SDS011;52661;51.364;6.054;2023-11-21T11:38:22;9.10;;;2.78;;
65879;SDS011;52661;51.364;6.054;2023-11-21T11:40:48;8.40;;;2.90;;
65879;SDS011;52661;51.364;6.054;2023-11-21T11:43:27;9.18;;;3.05;;
65879;SDS011;52661;51.364;6.054;2023-11-21T11:45:55;8.85;;;2.85;;
65879;SDS011;52661;51.364;6.054;2023-11-21T11:48:21;10.23;;;3.10;;
65879;SDS011;52661;51.364;6.054;2023-11-21T11:51:06;10.13;;;2.78;;
65879;SDS011;52661;51.364;6.054;2023-11-21T11:53:40;6.97;;;2.05;;
65879;SDS011;52661;51.364;6.054;2023-11-21T11:56:23;6.72;;;2.67;;
65879;SDS011;52661;51.364;6.054;2023-11-21T11:58:52;6.00;;;2.72;;
65879;SDS011;52661;51.364;6.054;2023-11-21T12:01:19;6.50;;;2.38;;
65879;SDS011;52661;51.364;6.054;2023-11-21T12:04:21;7.80;;;2.10;;
65879;SDS011;52661;51.364;6.054;2023-11-21T12:06:42;9.20;;;2.85;;
65879;SDS011;52661;51.364;6.054;2023-11-21T12:09:18;6.32;;;2.30;;
65879;SDS011;52661;51.364;6.054;2023-11-21T12:11:45;4.72;;;1.63;;
65879;SDS011;52661;51.364;6.054;2023-11-21T12:14:12;3.47;;;1.15;;
65879;SDS011;52661;51.364;6.054;2023-11-21T12:16:38;4.05;;;1.42;;
65879;SDS011;52661;51.364;6.054;2023-11-21T12:19:04;3.85;;;1.25;;
65879;SDS011;52661;51.364;6.054;2023-11-21T12:21:30;3.97;;;1.50;;
65879;SDS011;52661;51.364;6.054;2023-11-21T12:23:57;2.13;;;0.77;;
65879;SDS011;52661;51.364;6.054;2023-11-21T12:26:23;2.70;;;1.02;;
65879;SDS011;52661;51.364;6.054;2023-11-21T12:28:55;3.58;;;1.20;;
65879;SDS011;52661;51.364;6.054;2023-11-21T12:31:21;2.50;;;1.10;;
65879;SDS011;52661;51.364;6.054;2023-11-21T12:33:49;4.68;;;1.25;;
65879;SDS011;52661;51.364;6.054;2023-11-21T12:36:15;4.80;;;1.27;;
65879;SDS011;52661;51.364;6.054;2023-11-21T12:38:41;4.20;;;1.33;;
65879;SDS011;52661;51.364;6.054;2023-11-21T12:41:07;4.75;;;1.60;;
65879;SDS011;52661;51.364;6.054;2023-11-21T12:43:32;4.15;;;1.40;;
65879;SDS011;52661;51.364;6.054;2023-11-21T12:46:06;7.93;;;1.65;;
65879;SDS011;52661;51.364;6.054;2023-11-21T12:48:32;5.97;;;2.08;;
65879;SDS011;52661;51.364;6.054;2023-11-21T12:50:58;2.85;;;1.02;;
65879;SDS011;52661;51.364;6.054;2023-11-21T12:53:25;5.65;;;1.67;;
65879;SDS011;52661;51.364;6.054;2023-11-21T12:55:51;3.40;;;1.30;;
65879;SDS011;52661;51.364;6.054;2023-11-21T12:58:17;4.05;;;1.33;;
65879;SDS011;52661;51.364;6.054;2023-11-21T13:00:46;6.97;;;1.50;;
65879;SDS011;52661;51.364;6.054;2023-11-21T13:03:12;4.20;;;1.00;;
65879;SDS011;52661;51.364;6.054;2023-11-21T13:05:42;5.22;;;1.70;;
65879;SDS011;52661;51.364;6.054;2023-11-21T13:08:09;2.72;;;0.82;;
65879;SDS011;52661;51.364;6.054;2023-11-21T13:10:38;5.07;;;1.63;;
65879;SDS011;52661;51.364;6.054;2023-11-21T13:13:05;4.85;;;1.83;;
65879;SDS011;52661;51.364;6.054;2023-11-21T13:15:34;6.03;;;2.97;;
65879;SDS011;52661;51.364;6.054;2023-11-21T13:18:03;6.28;;;2.33;;
65879;SDS011;52661;51.364;6.054;2023-11-21T13:20:28;5.97;;;2.53;;
65879;SDS011;52661;51.364;6.054;2023-11-21T13:22:57;3.22;;;1.70;;
65879;SDS011;52661;51.364;6.054;2023-11-21T13:25:24;2.70;;;0.93;;
65879;SDS011;52661;51.364;6.054;2023-11-21T13:27:52;4.28;;;1.50;;
65879;SDS011;52661;51.364;6.054;2023-11-21T13:30:21;5.07;;;1.38;;
65879;SDS011;52661;51.364;6.054;2023-11-21T13:32:52;5.25;;;1.75;;
65879;SDS011;52661;51.364;6.054;2023-11-21T13:35:24;6.38;;;1.90;;
65879;SDS011;52661;51.364;6.054;2023-11-21T13:38:06;3.95;;;1.58;;
65879;SDS011;52661;51.364;6.054;2023-11-21T13:40:32;4.35;;;1.48;;
65879;SDS011;52661;51.364;6.054;2023-11-21T13:42:59;3.83;;;1.30;;
65879;SDS011;52661;51.364;6.054;2023-11-21T13:45:29;9.23;;;1.15;;
65879;SDS011;52661;51.364;6.054;2023-11-21T13:47:56;4.80;;;1.45;;
65879;SDS011;52661;51.364;6.054;2023-11-21T13:50:27;3.13;;;1.25;;
65879;SDS011;52661;51.364;6.054;2023-11-21T13:53:02;4.55;;;1.63;;
65879;SDS011;52661;51.364;6.054;2023-11-21T13:55:35;2.25;;;0.85;;
65879;SDS011;52661;51.364;6.054;2023-11-21T13:58:02;4.28;;;2.00;;
65879;SDS011;52661;51.364;6.054;2023-11-21T14:00:29;2.35;;;0.98;;
65879;SDS011;52661;51.364;6.054;2023-11-21T14:03:11;4.15;;;1.83;;
65879;SDS011;52661;51.364;6.054;2023-11-21T14:05:50;6.05;;;1.95;;
65879;SDS011;52661;51.364;6.054;2023-11-21T14:08:21;4.38;;;1.55;;
65879;SDS011;52661;51.364;6.054;2023-11-21T14:10:48;5.55;;;2.00;;
65879;SDS011;52661;51.364;6.054;2023-11-21T14:13:20;5.65;;;2.05;;
65879;SDS011;52661;51.364;6.054;2023-11-21T14:15:48;6.53;;;2.35;;
65879;SDS011;52661;51.364;6.054;2023-11-21T14:18:16;11.63;;;2.97;;
65879;SDS011;52661;51.364;6.054;2023-11-21T14:20:42;6.30;;;2.88;;
65879;SDS011;52661;51.364;6.054;2023-11-21T14:23:09;6.80;;;2.50;;
65879;SDS011;52661;51.364;6.054;2023-11-21T14:25:35;8.63;;;3.10;;
65879;SDS011;52661;51.364;6.054;2023-11-21T14:28:02;7.50;;;2.40;;
65879;SDS011;52661;51.364;6.054;2023-11-21T14:30:29;7.88;;;2.97;;
65879;SDS011;52661;51.364;6.054;2023-11-21T14:32:57;7.75;;;3.08;;
65879;SDS011;52661;51.364;6.054;2023-11-21T14:35:23;7.72;;;3.42;;
65879;SDS011;52661;51.364;6.054;2023-11-21T14:37:48;9.32;;;2.88;;
65879;SDS011;52661;51.364;6.054;2023-11-21T14:40:14;11.02;;;3.03;;
65879;SDS011;52661;51.364;6.054;2023-11-21T14:42:41;11.65;;;3.60;;
65879;SDS011;52661;51.364;6.054;2023-11-21T14:45:12;8.50;;;3.40;;
65879;SDS011;52661;51.364;6.054;2023-11-21T14:47:38;10.85;;;3.63;;
65879;SDS011;52661;51.364;6.054;2023-11-21T14:50:08;8.57;;;3.00;;
65879;SDS011;52661;51.364;6.054;2023-11-21T14:53:03;9.52;;;3.35;;
65879;SDS011;52661;51.364;6.054;2023-11-21T14:55:31;11.52;;;3.75;;